createdAt,value
2019-04-28T13:44:49.825Z,100958.19
2019-04-28T13:47:22.036Z,100951.14
2019-04-28T13:49:54.660Z,100952.13
2019-04-28T13:52:25.483Z,100952.70
2019-04-28T13:54:58.463Z,100954.66
2019-04-28T13:57:29.364Z,100949.98
2019-04-28T14:00:04.596Z,100958.39
2019-04-28T14:02:52.039Z,100957.39
2019-04-28T14:05:41.303Z,100952.51
2019-04-28T14:08:13.505Z,100955.97
2019-04-28T14:10:45.333Z,100955.97
2019-04-28T14:13:16.608Z,100957.85
2019-04-28T14:15:48.513Z,100962.02
2019-04-28T14:18:20.479Z,100961.67
2019-04-28T14:20:53.152Z,100955.08
2019-04-28T14:23:23.886Z,100946.78
2019-04-28T14:25:54.861Z,100953.73
2019-04-28T14:28:26.089Z,100955.08
2019-04-28T14:31:00.685Z,100958.85
2019-04-28T14:33:32.580Z,100956.54
2019-04-28T14:36:03.366Z,100955.84
2019-04-28T14:38:34.508Z,100960.27
2019-04-28T14:41:07.247Z,100958.00
2019-04-28T14:43:39.938Z,100971.23
2019-04-28T14:46:11.612Z,100959.86
2019-04-28T14:48:43.800Z,100964.79
2019-04-28T14:51:14.803Z,100966.34
2019-04-28T14:53:45.500Z,100966.81
2019-04-28T14:56:16.140Z,100970.64
2019-04-28T14:58:47.486Z,100967.84
2019-04-28T15:01:32.126Z,100972.45
2019-04-28T15:04:04.647Z,100975.52
2019-04-28T15:06:40.017Z,100964.74
2019-04-28T15:09:29.012Z,100972.68
2019-04-28T15:12:01.608Z,100975.03
2019-04-28T15:14:32.695Z,100977.08
2019-04-28T15:17:03.744Z,100973.00
2019-04-28T15:19:34.560Z,100973.77
2019-04-28T15:24:41.923Z,100978.77
2019-04-28T15:27:12.929Z,100976.94
2019-04-28T15:29:43.767Z,100978.27
2019-04-28T15:32:15.046Z,100984.43
2019-04-28T15:34:45.880Z,100987.17
2019-04-28T15:37:16.640Z,100989.96
2019-04-28T15:39:47.670Z,100982.50
2019-04-28T15:42:18.646Z,100987.09
2019-04-28T15:44:49.884Z,101000.69
2019-04-28T15:47:20.882Z,101005.27
2019-04-28T15:49:53.980Z,100997.21
2019-04-28T15:52:25.537Z,100995.61
2019-04-28T15:54:56.831Z,101006.08
2019-04-28T15:57:27.850Z,101002.31
2019-04-28T16:00:00.156Z,101005.48
2019-04-28T16:02:31.241Z,101004.55
2019-04-28T16:05:02.402Z,101011.48
2019-04-28T16:07:33.754Z,101010.39
2019-04-28T16:10:06.728Z,101010.95
2019-04-28T16:12:38.374Z,101012.07
2019-04-28T16:15:09.880Z,101005.81
2019-04-28T16:17:42.247Z,101002.55
2019-04-28T16:20:14.390Z,101005.07
2019-04-28T16:22:45.358Z,101014.06
2019-04-28T16:25:16.593Z,101005.25
2019-04-28T16:27:48.255Z,101003.30
2019-04-28T16:30:19.836Z,101009.59
2019-04-28T16:32:53.464Z,101008.36
2019-04-28T16:35:25.393Z,101012.52
2019-04-28T16:37:56.211Z,101005.53
2019-04-28T16:40:29.046Z,101010.90
2019-04-28T16:43:07.899Z,101008.70
2019-04-28T16:45:40.326Z,101009.73
2019-04-28T16:48:14.152Z,101007.27
2019-04-28T16:50:45.836Z,101007.86
2019-04-28T16:53:17.271Z,101006.59
2019-04-28T16:55:50.151Z,101008.00
2019-04-28T16:58:31.799Z,101006.98
2019-04-28T17:01:12.340Z,101011.17
2019-04-28T17:03:43.963Z,101008.81
2019-04-28T17:06:14.945Z,101011.01
2019-04-28T17:08:46.179Z,101005.05
2019-04-28T17:11:17.330Z,101009.20
2019-04-28T17:13:48.308Z,101013.86
2019-04-28T17:16:19.877Z,101014.00
2019-04-28T17:18:50.793Z,101010.64
2019-04-28T17:21:22.328Z,101012.53
2019-04-28T17:23:54.555Z,101017.95
2019-04-28T17:26:25.595Z,101015.52
2019-04-28T17:28:56.643Z,101016.06
2019-04-28T17:31:28.107Z,101016.67
2019-04-28T17:33:59.622Z,101021.65
2019-04-28T17:36:30.570Z,101021.84
2019-04-28T17:39:01.546Z,101021.06
2019-04-28T17:41:35.017Z,101017.05
2019-04-28T17:44:06.256Z,101023.36
2019-04-28T17:46:37.340Z,101024.86
2019-04-28T17:49:08.949Z,101024.07
2019-04-28T17:51:41.492Z,101027.36
2019-04-28T17:54:12.385Z,101031.75
2019-04-28T17:56:43.776Z,101036.78
2019-04-28T17:59:16.313Z,101036.09
2019-04-28T18:01:53.809Z,101039.21
2019-04-28T18:04:35.890Z,101043.70
2019-04-28T18:07:10.576Z,101042.36
2019-04-28T18:09:43.386Z,101045.64
2019-04-28T18:12:14.578Z,101046.98
2019-04-28T18:14:47.698Z,101047.94
2019-04-28T18:17:23.325Z,101055.96
2019-04-28T18:19:54.732Z,101058.77
2019-04-28T18:22:26.237Z,101063.19
2019-04-28T18:24:58.587Z,101061.54
2019-04-28T18:27:30.387Z,101065.45
2019-04-28T18:30:01.834Z,101066.89
2019-04-28T18:32:41.858Z,101070.48
2019-04-28T18:35:15.012Z,101071.92
2019-04-28T18:38:05.794Z,101075.67
2019-04-28T18:40:45.008Z,101079.44
2019-04-28T18:43:35.908Z,101077.30
2019-04-28T18:46:06.990Z,101083.19
2019-04-28T18:48:39.424Z,101085.55
2019-04-28T18:51:11.159Z,101082.52
2019-04-28T18:53:44.523Z,101087.42
2019-04-28T18:56:14.760Z,101085.61
2019-04-28T18:58:46.447Z,101080.80
2019-04-28T19:01:36.872Z,101083.16
2019-04-28T19:04:09.250Z,101084.08
2019-04-28T19:06:40.503Z,101093.43
2019-04-28T19:09:19.200Z,101085.03
2019-04-28T19:12:08.397Z,101093.05
2019-04-28T19:14:41.020Z,101098.33
2019-04-28T19:17:17.695Z,101099.09
2019-04-28T19:19:49.626Z,101098.33
2019-04-28T19:22:20.505Z,101095.25
2019-04-28T19:24:53.352Z,101092.19
2019-04-28T19:27:24.592Z,101096.20
2019-04-28T19:29:56.478Z,101093.05
2019-04-28T19:32:28.258Z,101090.50
2019-04-28T19:35:00.184Z,101091.11
2019-04-28T19:37:32.246Z,101090.75
2019-04-28T19:40:03.433Z,101086.30
2019-04-28T19:42:36.054Z,101083.31
2019-04-28T19:45:12.010Z,101081.62
2019-04-28T19:47:42.962Z,101082.16
2019-04-28T19:50:14.786Z,101092.14
2019-04-28T19:52:46.150Z,101090.39
2019-04-28T19:55:20.135Z,101083.87
2019-04-28T19:58:11.317Z,101086.59
2019-04-28T20:00:45.099Z,101075.27
2019-04-28T20:03:17.953Z,101085.06
2019-04-28T20:05:49.104Z,101079.41
2019-04-28T20:08:21.384Z,101079.41
2019-04-28T20:10:52.418Z,101079.02
2019-04-28T20:13:23.210Z,101075.13
2019-04-28T20:15:54.134Z,101070.27
2019-04-28T20:18:24.937Z,101066.32
2019-04-28T20:20:55.748Z,101063.74
2019-04-28T20:23:26.393Z,101070.86
2019-04-28T20:25:57.192Z,101065.08
2019-04-28T20:28:28.099Z,101061.99
2019-04-28T20:30:59.147Z,101066.00
2019-04-28T20:33:30.222Z,101061.94
2019-04-28T20:36:03.081Z,101066.32
2019-04-28T20:38:34.452Z,101067.27
2019-04-28T20:41:09.547Z,101065.94
2019-04-28T20:43:40.464Z,101068.13
2019-04-28T20:46:11.311Z,101063.33
2019-04-28T20:48:42.022Z,101060.06
2019-04-28T20:51:12.807Z,101065.08
2019-04-28T20:53:44.443Z,101066.86
2019-04-28T20:56:15.868Z,101062.85
2019-04-28T20:58:47.042Z,101066.95
2019-04-28T21:01:19.070Z,101061.99
2019-04-28T21:03:50.152Z,101066.48
2019-04-28T21:06:20.919Z,101062.53
2019-04-28T21:08:53.357Z,101057.52
2019-04-28T21:11:24.731Z,101061.67
2019-04-28T21:13:55.618Z,101048.47
2019-04-28T21:16:27.310Z,101050.78
2019-04-28T21:18:58.814Z,101051.67
2019-04-28T21:21:29.862Z,101049.07
2019-04-28T21:24:01.064Z,101051.48
2019-04-28T21:26:31.930Z,101052.27
2019-04-28T21:29:02.979Z,101049.34
2019-04-28T21:31:33.541Z,101050.67
2019-04-28T21:34:04.393Z,101054.63
2019-04-28T21:36:35.340Z,101042.34
2019-04-28T21:39:09.047Z,101047.69
2019-04-28T21:41:41.134Z,101044.95
2019-04-28T21:44:30.884Z,101039.14
2019-04-28T21:47:21.940Z,101042.82
2019-04-28T21:49:53.006Z,101042.73
2019-04-28T21:52:24.304Z,101040.53
2019-04-28T21:54:56.282Z,101045.88
2019-04-28T21:57:27.384Z,101033.92
2019-04-28T21:59:58.179Z,101031.66
2019-04-28T22:02:31.840Z,101031.66
2019-04-28T22:05:03.092Z,101025.31
2019-04-28T22:07:33.929Z,101020.92
2019-04-28T22:10:06.921Z,101008.65
2019-04-28T22:12:37.782Z,101021.05
2019-04-28T22:15:08.818Z,101012.56
2019-04-28T22:17:39.860Z,101013.98
2019-04-28T22:20:10.680Z,101005.09
2019-04-28T22:22:41.809Z,100997.17
2019-04-28T22:25:14.408Z,100999.42
2019-04-28T22:27:45.220Z,101001.17
2019-04-28T22:30:16.307Z,101004.23
2019-04-28T22:32:47.436Z,100999.37
2019-04-28T22:35:18.284Z,101001.97
2019-04-28T22:37:49.708Z,101003.69
2019-04-28T22:40:20.600Z,100999.75
2019-04-28T22:42:51.328Z,100995.20
2019-04-28T22:45:22.395Z,100993.34
2019-04-28T22:47:53.408Z,101002.14
2019-04-28T22:50:42.390Z,101006.03
2019-04-28T22:53:15.568Z,100998.45
2019-04-28T22:55:53.202Z,101003.35
2019-04-28T22:58:26.048Z,101008.22
2019-04-28T23:01:15.666Z,101009.39
2019-04-28T23:03:57.518Z,101000.05
2019-04-28T23:06:29.794Z,100995.61
2019-04-28T23:09:01.265Z,100994.52
2019-04-28T23:11:34.221Z,100987.38
2019-04-28T23:14:05.221Z,100978.09
2019-04-28T23:16:36.257Z,100975.36
2019-04-28T23:19:08.941Z,100976.53
2019-04-28T23:21:44.296Z,100964.04
2019-04-28T23:24:15.586Z,100959.11
2019-04-28T23:26:46.670Z,100962.58
2019-04-28T23:29:18.119Z,100961.63
2019-04-28T23:31:49.194Z,100959.75
2019-04-28T23:34:20.047Z,100947.73
2019-04-28T23:36:50.928Z,100944.61
2019-04-28T23:39:22.495Z,100929.92
2019-04-28T23:42:04.041Z,100927.16
2019-04-28T23:44:34.620Z,100920.00
2019-04-28T23:47:07.391Z,100911.92
2019-04-28T23:49:38.548Z,100904.77
2019-04-28T23:52:27.312Z,100905.31
2019-04-28T23:54:59.576Z,100906.27
2019-04-28T23:57:30.317Z,100895.10
